Indianapolis, Indiana
Traffic Map
Current Weather Conditions
Indianapolis, Indiana
Broken Clouds
Broken Clouds
13°
Feels Like: 13°
Wind Chill: 13° Ceiling: 22000
Heat Index: 13° Visibility: 10mi
Dew Point: Wind: 3mph
Humidity: 51% Direction: 200° (SSW)
Pressure: 30.17in Gusts: 0mph
Raw Report DataKIND 231854Z 20003KT 10SM BKN220 13/03 A3017 RMK AO2 SLP217 T01330033
Traffic Incident Summary
Active as of:
Severity:
Category:
InformationThere was an issue retrieving the traffic information for this location. Please try a different location or try again shortly.
Advertisements
Track Severe Weather on mobile